RYR935 EDDG-EDDN
Flight info
| Callsign | RYR935 |
|---|---|
| Flight time | 1h 15m |
| Altitude | 29000 |
| Route | DOMEG1W DOMEG Z841 GMH Q603 TESGA Z719 ETOLU Z723 KOMIB T193 ERTES T194 DODAS DODAS1V |
| Aircraft | B738/M-SDGIJ1LRWY/SB1 |
Departure
| Time | 2026-04-20 18:47 |
|---|---|
| Airport | Münster Osnabrück Airport (EDDG) |
Arrival
| Time | 2026-04-20 20:02 |
|---|---|
| Airport | Nuremberg Airport (EDDN) |
| Time | Latitude | Longitude | Altitude | Speed | Heading |
|---|---|---|---|---|---|
| 2026-04-20 18:27 | 52.13156 | 7.69302 | 167 ft | 0 kts | 196° |
| 2026-04-20 18:39 | 52.13164 | 7.69306 | 167 ft | 2 kts | 196° |
| 2026-04-20 18:39 | 52.13179 | 7.69312 | 167 ft | 2 kts | 196° |
| 2026-04-20 18:39 | 52.13193 | 7.69319 | 167 ft | 2 kts | 196° |
| 2026-04-20 18:39 | 52.13208 | 7.69325 | 167 ft | 2 kts | 201° |
| 2026-04-20 18:40 | 52.13221 | 7.69338 | 167 ft | 2 kts | 223° |
| 2026-04-20 18:40 | 52.13230 | 7.69357 | 167 ft | 2 kts | 242° |
| 2026-04-20 18:40 | 52.13235 | 7.69379 | 167 ft | 2 kts | 255° |
| 2026-04-20 18:40 | 52.13239 | 7.69400 | 167 ft | 0 kts | 250° |
| 2026-04-20 18:41 | 52.13240 | 7.69402 | 167 ft | 0 kts | 250° |
| 2026-04-20 18:42 | 52.13240 | 7.69401 | 167 ft | 0 kts | 250° |
| 2026-04-20 18:43 | 52.13235 | 7.69383 | 167 ft | 6 kts | 250° |
| 2026-04-20 18:43 | 52.13260 | 7.69317 | 167 ft | 7 kts | 339° |
| 2026-04-20 18:43 | 52.13317 | 7.69284 | 167 ft | 10 kts | 341° |
| 2026-04-20 18:43 | 52.13400 | 7.69239 | 167 ft | 12 kts | 342° |
| 2026-04-20 18:44 | 52.13456 | 7.69283 | 167 ft | 9 kts | 70° |
| 2026-04-20 18:44 | 52.13479 | 7.69393 | 167 ft | 11 kts | 71° |
| 2026-04-20 18:44 | 52.13508 | 7.69525 | 167 ft | 14 kts | 70° |
| 2026-04-20 18:44 | 52.13543 | 7.69692 | 167 ft | 16 kts | 71° |
| 2026-04-20 18:45 | 52.13578 | 7.69865 | 167 ft | 15 kts | 71° |
| 2026-04-20 18:45 | 52.13618 | 7.69993 | 167 ft | 11 kts | 45° |
| 2026-04-20 18:45 | 52.13669 | 7.70031 | 167 ft | 5 kts | 7° |
| 2026-04-20 18:45 | 52.13708 | 7.70025 | 167 ft | 5 kts | 343° |
| 2026-04-20 18:46 | 52.13749 | 7.70002 | 167 ft | 6 kts | 340° |
| 2026-04-20 18:46 | 52.13771 | 7.69961 | 167 ft | 5 kts | 262° |
| 2026-04-20 18:46 | 52.13740 | 7.69803 | 167 ft | 35 kts | 251° |
| 2026-04-20 18:46 | 52.13573 | 7.69019 | 167 ft | 107 kts | 251° |
| 2026-04-20 18:47 | 52.13265 | 7.67557 | 175 ft | 162 kts | 250° |
| 2026-04-20 18:47 | 52.12861 | 7.65797 | 721 ft | 169 kts | 252° |
| 2026-04-20 18:47 | 52.12532 | 7.63985 | 1437 ft | 170 kts | 257° |
| 2026-04-20 18:47 | 52.12209 | 7.62075 | 1910 ft | 183 kts | 255° |
| 2026-04-20 18:48 | 52.11801 | 7.60027 | 2303 ft | 199 kts | 252° |
| 2026-04-20 18:48 | 52.11329 | 7.57801 | 2709 ft | 216 kts | 252° |
| 2026-04-20 18:48 | 52.10787 | 7.55442 | 3117 ft | 233 kts | 245° |
| 2026-04-20 18:48 | 52.09803 | 7.53278 | 3516 ft | 248 kts | 215° |
| 2026-04-20 18:49 | 52.08222 | 7.52120 | 3977 ft | 256 kts | 187° |
| 2026-04-20 18:49 | 52.06419 | 7.51777 | 4318 ft | 267 kts | 181° |
| 2026-04-20 18:49 | 52.04545 | 7.51530 | 4649 ft | 270 kts | 181° |
| 2026-04-20 18:49 | 52.02669 | 7.51252 | 4902 ft | 272 kts | 182° |
| 2026-04-20 18:50 | 52.00784 | 7.50988 | 4972 ft | 271 kts | 179° |
| 2026-04-20 18:50 | 51.98881 | 7.51144 | 5198 ft | 281 kts | 168° |
| 2026-04-20 18:50 | 51.97030 | 7.51655 | 6246 ft | 268 kts | 165° |
| 2026-04-20 18:50 | 51.95209 | 7.52221 | 7066 ft | 267 kts | 166° |
| 2026-04-20 18:51 | 51.93357 | 7.52769 | 7731 ft | 273 kts | 167° |
| 2026-04-20 18:51 | 51.91483 | 7.53289 | 8413 ft | 278 kts | 167° |
| 2026-04-20 18:51 | 51.89555 | 7.53802 | 9129 ft | 283 kts | 167° |
| 2026-04-20 18:51 | 51.87612 | 7.54311 | 9856 ft | 286 kts | 167° |
| 2026-04-20 18:52 | 51.85656 | 7.54824 | 10553 ft | 291 kts | 167° |
| 2026-04-20 18:52 | 51.83607 | 7.55368 | 10967 ft | 306 kts | 168° |
| 2026-04-20 18:52 | 51.81446 | 7.55945 | 11400 ft | 322 kts | 168° |
| 2026-04-20 18:52 | 51.79190 | 7.56545 | 11972 ft | 333 kts | 168° |
| 2026-04-20 18:53 | 51.76923 | 7.57140 | 12712 ft | 338 kts | 168° |
| 2026-04-20 18:53 | 51.74598 | 7.57748 | 13534 ft | 342 kts | 168° |
| 2026-04-20 18:53 | 51.72253 | 7.58362 | 14324 ft | 346 kts | 168° |
| 2026-04-20 18:53 | 51.69894 | 7.59210 | 15111 ft | 349 kts | 161° |
| 2026-04-20 18:54 | 51.67575 | 7.60399 | 15915 ft | 352 kts | 158° |
| 2026-04-20 18:54 | 51.65271 | 7.61747 | 16695 ft | 356 kts | 157° |
| 2026-04-20 18:54 | 51.62944 | 7.63153 | 17483 ft | 360 kts | 157° |
| 2026-04-20 18:54 | 51.60596 | 7.64560 | 18256 ft | 363 kts | 157° |
| 2026-04-20 18:55 | 51.58215 | 7.65959 | 19015 ft | 367 kts | 157° |
| 2026-04-20 18:55 | 51.55826 | 7.67340 | 19798 ft | 370 kts | 158° |
| 2026-04-20 18:55 | 51.53392 | 7.68731 | 20586 ft | 372 kts | 158° |
| 2026-04-20 18:55 | 51.50962 | 7.70111 | 21297 ft | 375 kts | 158° |
| 2026-04-20 18:56 | 51.48501 | 7.71504 | 21999 ft | 378 kts | 158° |
| 2026-04-20 18:56 | 51.46006 | 7.72913 | 22693 ft | 380 kts | 158° |
| 2026-04-20 18:56 | 51.43516 | 7.74317 | 23374 ft | 382 kts | 158° |
| 2026-04-20 18:56 | 51.41032 | 7.75718 | 23989 ft | 385 kts | 158° |
| 2026-04-20 18:57 | 51.38502 | 7.77146 | 24159 ft | 389 kts | 158° |
| 2026-04-20 18:57 | 51.35959 | 7.78578 | 24157 ft | 386 kts | 158° |
| 2026-04-20 18:57 | 51.33387 | 7.80027 | 24433 ft | 394 kts | 158° |
| 2026-04-20 18:57 | 51.30838 | 7.81461 | 25150 ft | 392 kts | 158° |
| 2026-04-20 18:58 | 51.28247 | 7.82918 | 25761 ft | 394 kts | 158° |
| 2026-04-20 18:58 | 51.25680 | 7.84359 | 26463 ft | 392 kts | 158° |
| 2026-04-20 18:58 | 51.23122 | 7.85794 | 27008 ft | 394 kts | 159° |
| 2026-04-20 18:58 | 51.20526 | 7.87251 | 27556 ft | 395 kts | 158° |
| 2026-04-20 18:59 | 51.17992 | 7.88806 | 28103 ft | 395 kts | 155° |
| 2026-04-20 18:59 | 51.15522 | 7.90718 | 28673 ft | 393 kts | 150° |
| 2026-04-20 18:59 | 51.13166 | 7.92899 | 29092 ft | 395 kts | 147° |
| 2026-04-20 18:59 | 51.10831 | 7.95242 | 29121 ft | 396 kts | 146° |
| 2026-04-20 19:00 | 51.06294 | 7.99966 | 29133 ft | 392 kts | 145° |
| 2026-04-20 19:00 | 51.01714 | 8.04719 | 29108 ft | 392 kts | 146° |
| 2026-04-20 19:01 | 50.97085 | 8.09453 | 29125 ft | 409 kts | 146° |
| 2026-04-20 19:01 | 50.94651 | 8.11923 | 29116 ft | 420 kts | 146° |
| 2026-04-20 19:01 | 50.92166 | 8.14434 | 29117 ft | 426 kts | 146° |
| 2026-04-20 19:02 | 50.87187 | 8.19444 | 29121 ft | 427 kts | 146° |
| 2026-04-20 19:02 | 50.82168 | 8.24475 | 29095 ft | 426 kts | 146° |
| 2026-04-20 19:03 | 50.77168 | 8.29477 | 29107 ft | 429 kts | 146° |
| 2026-04-20 19:03 | 50.72083 | 8.34552 | 29123 ft | 433 kts | 146° |
| 2026-04-20 19:04 | 50.66987 | 8.39624 | 29131 ft | 434 kts | 146° |
| 2026-04-20 19:04 | 50.61913 | 8.44660 | 29129 ft | 435 kts | 146° |
| 2026-04-20 19:05 | 50.56787 | 8.49738 | 29125 ft | 440 kts | 146° |
| 2026-04-20 19:05 | 50.51638 | 8.54823 | 29130 ft | 437 kts | 146° |
| 2026-04-20 19:06 | 50.46479 | 8.59915 | 29125 ft | 442 kts | 146° |
| 2026-04-20 19:06 | 50.41544 | 8.65564 | 29117 ft | 434 kts | 140° |
| 2026-04-20 19:07 | 50.37074 | 8.71630 | 29123 ft | 421 kts | 137° |
| 2026-04-20 19:07 | 50.32698 | 8.77761 | 29123 ft | 427 kts | 138° |
| 2026-04-20 19:08 | 50.27001 | 8.88235 | 29131 ft | 424 kts | 115° |
| 2026-04-20 19:09 | 50.24831 | 8.96760 | 29130 ft | 425 kts | 107° |
| 2026-04-20 19:09 | 50.23029 | 9.05506 | 29114 ft | 422 kts | 106° |
| 2026-04-20 19:09 | 50.22138 | 9.09890 | 28945 ft | 426 kts | 107° |
| 2026-04-20 19:10 | 50.21238 | 9.14230 | 28734 ft | 417 kts | 107° |
| 2026-04-20 19:10 | 50.20333 | 9.18509 | 28149 ft | 417 kts | 107° |
| 2026-04-20 19:10 | 50.19421 | 9.22781 | 27525 ft | 417 kts | 107° |
| 2026-04-20 19:10 | 50.18680 | 9.27111 | 26904 ft | 415 kts | 101° |
| 2026-04-20 19:11 | 50.18254 | 9.31502 | 26349 ft | 411 kts | 94° |
| 2026-04-20 19:11 | 50.18102 | 9.35971 | 25768 ft | 408 kts | 90° |
| 2026-04-20 19:11 | 50.18102 | 9.40365 | 25231 ft | 403 kts | 88° |
| 2026-04-20 19:11 | 50.18169 | 9.44664 | 25110 ft | 399 kts | 88° |
| 2026-04-20 19:12 | 50.18258 | 9.49006 | 25063 ft | 407 kts | 88° |
| 2026-04-20 19:12 | 50.18347 | 9.53421 | 24579 ft | 406 kts | 88° |
| 2026-04-20 19:12 | 50.18427 | 9.57789 | 24048 ft | 400 kts | 88° |
| 2026-04-20 19:12 | 50.18496 | 9.62072 | 23506 ft | 395 kts | 88° |
| 2026-04-20 19:13 | 50.18556 | 9.66344 | 22964 ft | 390 kts | 89° |
| 2026-04-20 19:13 | 50.18576 | 9.70570 | 22415 ft | 386 kts | 93° |
| 2026-04-20 19:13 | 50.17987 | 9.74614 | 21875 ft | 381 kts | 112° |
| 2026-04-20 19:13 | 50.16784 | 9.78227 | 21312 ft | 373 kts | 121° |
| 2026-04-20 19:14 | 50.15416 | 9.81549 | 20787 ft | 357 kts | 123° |
| 2026-04-20 19:14 | 50.14040 | 9.84681 | 20261 ft | 343 kts | 124° |
| 2026-04-20 19:14 | 50.12706 | 9.87660 | 19743 ft | 331 kts | 124° |
| 2026-04-20 19:14 | 50.11389 | 9.90580 | 19239 ft | 329 kts | 124° |
| 2026-04-20 19:15 | 50.10086 | 9.93472 | 18708 ft | 328 kts | 124° |
| 2026-04-20 19:15 | 50.08776 | 9.96377 | 18185 ft | 328 kts | 124° |
| 2026-04-20 19:15 | 50.07479 | 9.99257 | 17672 ft | 327 kts | 124° |
| 2026-04-20 19:15 | 50.06165 | 10.02166 | 17147 ft | 326 kts | 124° |
| 2026-04-20 19:16 | 50.04871 | 10.05023 | 16632 ft | 324 kts | 124° |
| 2026-04-20 19:16 | 50.03575 | 10.07877 | 16111 ft | 321 kts | 124° |
| 2026-04-20 19:16 | 50.02287 | 10.10699 | 15729 ft | 316 kts | 124° |
| 2026-04-20 19:16 | 50.01028 | 10.13443 | 15475 ft | 311 kts | 124° |
| 2026-04-20 19:17 | 49.99968 | 10.16324 | 15207 ft | 304 kts | 106° |
| 2026-04-20 19:17 | 49.99692 | 10.19489 | 15121 ft | 287 kts | 88° |
| 2026-04-20 19:17 | 49.99768 | 10.22491 | 15112 ft | 271 kts | 84° |
| 2026-04-20 19:17 | 49.99897 | 10.25369 | 15116 ft | 269 kts | 84° |
| 2026-04-20 19:18 | 50.00036 | 10.28313 | 15116 ft | 270 kts | 84° |
| 2026-04-20 19:18 | 50.00171 | 10.31212 | 15113 ft | 270 kts | 84° |
| 2026-04-20 19:18 | 50.00303 | 10.34106 | 15112 ft | 271 kts | 84° |
| 2026-04-20 19:18 | 50.00437 | 10.37048 | 15110 ft | 271 kts | 84° |
| 2026-04-20 19:19 | 50.00568 | 10.39964 | 15076 ft | 272 kts | 84° |
| 2026-04-20 19:19 | 50.00555 | 10.42878 | 14894 ft | 275 kts | 98° |
| 2026-04-20 19:19 | 49.99943 | 10.45707 | 14647 ft | 274 kts | 112° |
| 2026-04-20 19:19 | 49.99127 | 10.48359 | 14390 ft | 273 kts | 112° |
| 2026-04-20 19:20 | 49.98349 | 10.51059 | 14145 ft | 272 kts | 110° |
| 2026-04-20 19:20 | 49.97654 | 10.53766 | 14116 ft | 270 kts | 108° |
| 2026-04-20 19:20 | 49.96997 | 10.56500 | 14109 ft | 273 kts | 107° |
| 2026-04-20 19:20 | 49.96330 | 10.59266 | 14106 ft | 273 kts | 110° |
| 2026-04-20 19:21 | 49.95380 | 10.61821 | 14101 ft | 277 kts | 129° |
| 2026-04-20 19:21 | 49.93865 | 10.63640 | 14111 ft | 280 kts | 153° |
| 2026-04-20 19:21 | 49.92030 | 10.64683 | 14093 ft | 282 kts | 161° |
| 2026-04-20 19:21 | 49.90157 | 10.65615 | 13824 ft | 281 kts | 161° |
| 2026-04-20 19:22 | 49.88327 | 10.66558 | 13502 ft | 278 kts | 161° |
| 2026-04-20 19:22 | 49.86475 | 10.67535 | 13122 ft | 277 kts | 161° |
| 2026-04-20 19:22 | 49.84664 | 10.68496 | 12762 ft | 276 kts | 161° |
| 2026-04-20 19:22 | 49.82847 | 10.69460 | 12412 ft | 275 kts | 161° |
| 2026-04-20 19:23 | 49.81038 | 10.70364 | 12056 ft | 274 kts | 166° |
| 2026-04-20 19:23 | 49.79162 | 10.70910 | 11700 ft | 272 kts | 174° |
| 2026-04-20 19:23 | 49.77284 | 10.71207 | 11362 ft | 271 kts | 176° |
| 2026-04-20 19:23 | 49.75429 | 10.71449 | 11109 ft | 267 kts | 176° |
| 2026-04-20 19:24 | 49.73585 | 10.71710 | 11114 ft | 269 kts | 175° |
| 2026-04-20 19:24 | 49.71693 | 10.72002 | 11086 ft | 269 kts | 175° |
| 2026-04-20 19:24 | 49.69858 | 10.72303 | 10850 ft | 266 kts | 175° |
| 2026-04-20 19:24 | 49.68024 | 10.72619 | 10490 ft | 266 kts | 173° |
| 2026-04-20 19:25 | 49.66241 | 10.73281 | 10127 ft | 267 kts | 158° |
| 2026-04-20 19:25 | 49.64685 | 10.74814 | 9782 ft | 266 kts | 135° |
| 2026-04-20 19:25 | 49.63527 | 10.77014 | 9439 ft | 264 kts | 121° |
| 2026-04-20 19:25 | 49.62717 | 10.79551 | 9126 ft | 260 kts | 105° |
| 2026-04-20 19:26 | 49.62335 | 10.82250 | 8786 ft | 257 kts | 95° |
| 2026-04-20 19:26 | 49.62114 | 10.84998 | 8452 ft | 256 kts | 94° |
| 2026-04-20 19:26 | 49.61907 | 10.87679 | 8160 ft | 255 kts | 94° |
| 2026-04-20 19:26 | 49.61672 | 10.90366 | 8104 ft | 253 kts | 95° |
| 2026-04-20 19:27 | 49.61414 | 10.93065 | 8105 ft | 256 kts | 96° |
| 2026-04-20 19:27 | 49.61148 | 10.95801 | 8115 ft | 256 kts | 96° |
| 2026-04-20 19:27 | 49.60884 | 10.98495 | 8111 ft | 256 kts | 96° |
| 2026-04-20 19:27 | 49.60617 | 11.01231 | 8096 ft | 255 kts | 96° |
| 2026-04-20 19:28 | 49.60354 | 11.03920 | 7887 ft | 251 kts | 96° |
| 2026-04-20 19:28 | 49.60092 | 11.06590 | 7526 ft | 253 kts | 96° |
| 2026-04-20 19:28 | 49.59833 | 11.09253 | 7236 ft | 252 kts | 96° |
| 2026-04-20 19:28 | 49.59570 | 11.11924 | 6918 ft | 252 kts | 96° |
| 2026-04-20 19:29 | 49.59307 | 11.14573 | 6627 ft | 251 kts | 96° |
| 2026-04-20 19:29 | 49.59045 | 11.17227 | 6341 ft | 249 kts | 96° |
| 2026-04-20 19:29 | 49.58787 | 11.19851 | 6053 ft | 248 kts | 95° |
| 2026-04-20 19:29 | 49.58530 | 11.22440 | 5767 ft | 247 kts | 95° |
| 2026-04-20 19:30 | 49.58268 | 11.25062 | 5490 ft | 245 kts | 95° |
| 2026-04-20 19:30 | 49.58011 | 11.27635 | 5205 ft | 244 kts | 95° |
| 2026-04-20 19:30 | 49.57751 | 11.30195 | 4977 ft | 240 kts | 95° |
| 2026-04-20 19:30 | 49.57493 | 11.32741 | 4965 ft | 241 kts | 95° |
| 2026-04-20 19:31 | 49.57235 | 11.35306 | 4957 ft | 241 kts | 95° |
| 2026-04-20 19:31 | 49.56980 | 11.37834 | 4954 ft | 241 kts | 95° |
| 2026-04-20 19:31 | 49.56720 | 11.40406 | 4951 ft | 241 kts | 95° |
| 2026-04-20 19:31 | 49.56461 | 11.42967 | 4953 ft | 241 kts | 95° |
| 2026-04-20 19:32 | 49.56202 | 11.45520 | 4953 ft | 242 kts | 95° |
| 2026-04-20 19:32 | 49.55945 | 11.48042 | 4950 ft | 241 kts | 95° |
| 2026-04-20 19:32 | 49.55574 | 11.50564 | 4926 ft | 246 kts | 111° |
| 2026-04-20 19:32 | 49.54467 | 11.52581 | 4735 ft | 252 kts | 148° |
| 2026-04-20 19:33 | 49.52792 | 11.53224 | 4530 ft | 248 kts | 187° |
| 2026-04-20 19:33 | 49.51242 | 11.52245 | 4325 ft | 241 kts | 226° |
| 2026-04-20 19:33 | 49.50349 | 11.50194 | 4141 ft | 232 kts | 251° |
| 2026-04-20 19:33 | 49.49766 | 11.47863 | 3959 ft | 231 kts | 254° |
| 2026-04-20 19:34 | 49.49218 | 11.45538 | 3953 ft | 229 kts | 254° |
| 2026-04-20 19:34 | 49.48681 | 11.43265 | 3958 ft | 227 kts | 254° |
| 2026-04-20 19:34 | 49.48143 | 11.41003 | 3952 ft | 220 kts | 254° |
| 2026-04-20 19:34 | 49.47628 | 11.38866 | 3951 ft | 210 kts | 254° |
| 2026-04-20 19:35 | 49.47194 | 11.36742 | 3956 ft | 208 kts | 264° |
| 2026-04-20 19:35 | 49.47171 | 11.34571 | 3965 ft | 195 kts | 281° |
| 2026-04-20 19:35 | 49.47366 | 11.32595 | 3954 ft | 179 kts | 284° |
| 2026-04-20 19:35 | 49.47567 | 11.30761 | 3869 ft | 176 kts | 284° |
| 2026-04-20 19:36 | 49.47757 | 11.28891 | 3639 ft | 175 kts | 283° |
| 2026-04-20 19:36 | 49.47942 | 11.27047 | 3393 ft | 174 kts | 284° |
| 2026-04-20 19:36 | 49.48128 | 11.25211 | 3144 ft | 173 kts | 284° |
| 2026-04-20 19:36 | 49.48309 | 11.23417 | 2908 ft | 168 kts | 283° |
| 2026-04-20 19:37 | 49.48487 | 11.21646 | 2685 ft | 169 kts | 283° |
| 2026-04-20 19:37 | 49.48661 | 11.19906 | 2431 ft | 156 kts | 283° |
| 2026-04-20 19:37 | 49.48817 | 11.18334 | 2233 ft | 146 kts | 283° |
| 2026-04-20 19:37 | 49.48972 | 11.16822 | 2016 ft | 139 kts | 283° |
| 2026-04-20 19:38 | 49.49120 | 11.15345 | 1848 ft | 139 kts | 282° |
| 2026-04-20 19:38 | 49.49265 | 11.13871 | 1663 ft | 139 kts | 282° |
| 2026-04-20 19:38 | 49.49410 | 11.12389 | 1470 ft | 140 kts | 282° |
| 2026-04-20 19:38 | 49.49560 | 11.10885 | 1329 ft | 153 kts | 282° |
| 2026-04-20 19:39 | 49.49718 | 11.09316 | 2100 ft | 148 kts | 282° |
| 2026-04-20 19:39 | 49.49873 | 11.07653 | 2629 ft | 168 kts | 283° |
| 2026-04-20 19:39 | 49.50065 | 11.05758 | 3055 ft | 193 kts | 283° |
| 2026-04-20 19:39 | 49.50285 | 11.03615 | 3489 ft | 216 kts | 283° |
| 2026-04-20 19:40 | 49.50525 | 11.01299 | 3915 ft | 223 kts | 283° |
| 2026-04-20 19:40 | 49.50778 | 10.98904 | 4345 ft | 229 kts | 283° |
| 2026-04-20 19:40 | 49.51034 | 10.96531 | 4773 ft | 226 kts | 283° |
| 2026-04-20 19:40 | 49.51297 | 10.94144 | 4993 ft | 228 kts | 283° |
| 2026-04-20 19:41 | 49.51562 | 10.91751 | 4986 ft | 226 kts | 283° |
| 2026-04-20 19:41 | 49.51826 | 10.89371 | 4990 ft | 226 kts | 283° |
| 2026-04-20 19:41 | 49.52091 | 10.86995 | 4985 ft | 226 kts | 283° |
| 2026-04-20 19:41 | 49.52056 | 10.84557 | 4967 ft | 233 kts | 254° |
| 2026-04-20 19:42 | 49.51089 | 10.82564 | 4988 ft | 244 kts | 216° |
| 2026-04-20 19:42 | 49.49464 | 10.81793 | 4996 ft | 250 kts | 182° |
| 2026-04-20 19:42 | 49.47738 | 10.81957 | 4979 ft | 250 kts | 175° |
| 2026-04-20 19:42 | 49.46003 | 10.82263 | 4972 ft | 250 kts | 174° |
| 2026-04-20 19:43 | 49.44267 | 10.82576 | 4977 ft | 250 kts | 174° |
| 2026-04-20 19:43 | 49.42546 | 10.82885 | 4981 ft | 250 kts | 174° |
| 2026-04-20 19:43 | 49.40818 | 10.83194 | 4984 ft | 250 kts | 174° |
| 2026-04-20 19:43 | 49.39067 | 10.83506 | 4975 ft | 250 kts | 174° |
| 2026-04-20 19:44 | 49.37343 | 10.83811 | 4975 ft | 250 kts | 174° |
| 2026-04-20 19:44 | 49.35634 | 10.84115 | 4982 ft | 251 kts | 174° |
| 2026-04-20 19:44 | 49.33900 | 10.84426 | 4981 ft | 250 kts | 174° |
| 2026-04-20 19:44 | 49.32174 | 10.84739 | 4982 ft | 249 kts | 174° |
| 2026-04-20 19:45 | 49.30436 | 10.85060 | 4983 ft | 250 kts | 174° |
| 2026-04-20 19:45 | 49.28703 | 10.85385 | 4986 ft | 250 kts | 174° |
| 2026-04-20 19:45 | 49.26986 | 10.85784 | 4966 ft | 250 kts | 163° |
| 2026-04-20 19:45 | 49.25540 | 10.87168 | 4977 ft | 249 kts | 126° |
| 2026-04-20 19:46 | 49.24802 | 10.89520 | 4983 ft | 244 kts | 102° |
| 2026-04-20 19:46 | 49.24408 | 10.92003 | 4974 ft | 243 kts | 99° |
| 2026-04-20 19:46 | 49.24040 | 10.94535 | 4970 ft | 242 kts | 99° |
| 2026-04-20 19:46 | 49.23676 | 10.97031 | 4978 ft | 243 kts | 99° |
| 2026-04-20 19:47 | 49.23304 | 10.99569 | 4970 ft | 242 kts | 99° |
| 2026-04-20 19:47 | 49.22936 | 11.02075 | 4967 ft | 242 kts | 99° |
| 2026-04-20 19:47 | 49.22617 | 11.04598 | 4962 ft | 240 kts | 89° |
| 2026-04-20 19:47 | 49.22870 | 11.07039 | 4977 ft | 235 kts | 67° |
| 2026-04-20 19:48 | 49.23452 | 11.09390 | 4966 ft | 234 kts | 64° |
| 2026-04-20 19:48 | 49.24017 | 11.11704 | 4967 ft | 235 kts | 71° |
| 2026-04-20 19:48 | 49.24328 | 11.14151 | 4970 ft | 237 kts | 78° |
| 2026-04-20 19:48 | 49.24537 | 11.16656 | 4965 ft | 237 kts | 79° |
| 2026-04-20 19:49 | 49.24734 | 11.19178 | 4961 ft | 238 kts | 79° |
| 2026-04-20 19:49 | 49.24928 | 11.21687 | 4960 ft | 238 kts | 79° |
| 2026-04-20 19:49 | 49.25122 | 11.24199 | 4959 ft | 238 kts | 79° |
| 2026-04-20 19:49 | 49.25317 | 11.26690 | 4960 ft | 238 kts | 79° |
| 2026-04-20 19:50 | 49.25511 | 11.29206 | 4952 ft | 238 kts | 79° |
| 2026-04-20 19:50 | 49.25708 | 11.31744 | 4950 ft | 237 kts | 79° |
| 2026-04-20 19:50 | 49.25902 | 11.34222 | 4951 ft | 237 kts | 79° |
| 2026-04-20 19:50 | 49.26099 | 11.36747 | 4946 ft | 237 kts | 79° |
| 2026-04-20 19:51 | 49.26296 | 11.39251 | 4949 ft | 237 kts | 79° |
| 2026-04-20 19:51 | 49.26494 | 11.41766 | 4945 ft | 238 kts | 79° |
| 2026-04-20 19:51 | 49.26687 | 11.44269 | 4940 ft | 237 kts | 79° |
| 2026-04-20 19:51 | 49.26879 | 11.46773 | 4944 ft | 237 kts | 79° |
| 2026-04-20 19:52 | 49.27070 | 11.49283 | 4939 ft | 237 kts | 79° |
| 2026-04-20 19:52 | 49.27260 | 11.51768 | 4934 ft | 238 kts | 79° |
| 2026-04-20 19:52 | 49.27455 | 11.54310 | 4930 ft | 239 kts | 79° |
| 2026-04-20 19:52 | 49.27901 | 11.56682 | 4923 ft | 230 kts | 52° |
| 2026-04-20 19:53 | 49.29079 | 11.58204 | 4942 ft | 223 kts | 20° |
| 2026-04-20 19:53 | 49.30525 | 11.58998 | 4933 ft | 220 kts | 14° |
| 2026-04-20 19:53 | 49.31997 | 11.59690 | 4934 ft | 220 kts | 14° |
| 2026-04-20 19:53 | 49.33460 | 11.60371 | 4935 ft | 220 kts | 14° |
| 2026-04-20 19:54 | 49.34931 | 11.61056 | 4936 ft | 220 kts | 14° |
| 2026-04-20 19:54 | 49.36394 | 11.61738 | 4936 ft | 220 kts | 14° |
| 2026-04-20 19:54 | 49.37879 | 11.62140 | 4932 ft | 217 kts | 352° |
| 2026-04-20 19:54 | 49.39199 | 11.61250 | 4949 ft | 204 kts | 320° |
| 2026-04-20 19:55 | 49.40182 | 11.59729 | 4948 ft | 203 kts | 314° |
| 2026-04-20 19:55 | 49.41154 | 11.58096 | 4938 ft | 208 kts | 314° |
| 2026-04-20 19:55 | 49.42124 | 11.56462 | 4944 ft | 207 kts | 314° |
| 2026-04-20 19:55 | 49.43094 | 11.54829 | 4944 ft | 208 kts | 314° |
| 2026-04-20 19:56 | 49.44067 | 11.53187 | 4945 ft | 208 kts | 313° |
| 2026-04-20 19:56 | 49.44960 | 11.51415 | 4943 ft | 209 kts | 303° |
| 2026-04-20 19:56 | 49.45552 | 11.49363 | 4951 ft | 212 kts | 289° |
| 2026-04-20 19:56 | 49.45885 | 11.47150 | 4954 ft | 214 kts | 283° |
| 2026-04-20 19:57 | 49.46127 | 11.44895 | 4961 ft | 214 kts | 282° |
| 2026-04-20 19:57 | 49.46355 | 11.42637 | 4959 ft | 214 kts | 282° |
| 2026-04-20 19:57 | 49.46583 | 11.40404 | 4957 ft | 210 kts | 282° |
| 2026-04-20 19:57 | 49.46808 | 11.38206 | 4915 ft | 205 kts | 282° |
| 2026-04-20 19:58 | 49.47025 | 11.36083 | 4622 ft | 202 kts | 283° |
| 2026-04-20 19:58 | 49.47240 | 11.33973 | 4327 ft | 198 kts | 283° |
| 2026-04-20 19:58 | 49.47448 | 11.31920 | 4035 ft | 191 kts | 283° |
| 2026-04-20 19:58 | 49.47644 | 11.29965 | 3783 ft | 176 kts | 284° |
| 2026-04-20 19:59 | 49.47828 | 11.28160 | 3572 ft | 173 kts | 284° |
| 2026-04-20 19:59 | 49.48012 | 11.26364 | 3289 ft | 165 kts | 284° |
| 2026-04-20 19:59 | 49.48182 | 11.24659 | 3070 ft | 159 kts | 284° |
| 2026-04-20 19:59 | 49.48347 | 11.23032 | 2848 ft | 148 kts | 284° |
| 2026-04-20 20:00 | 49.48504 | 11.21489 | 2656 ft | 146 kts | 284° |
| 2026-04-20 20:00 | 49.48651 | 11.19988 | 2461 ft | 142 kts | 284° |
| 2026-04-20 20:00 | 49.48804 | 11.18513 | 2231 ft | 139 kts | 284° |
| 2026-04-20 20:00 | 49.48953 | 11.17040 | 2092 ft | 141 kts | 282° |
| 2026-04-20 20:01 | 49.49087 | 11.15546 | 1889 ft | 143 kts | 282° |
| 2026-04-20 20:01 | 49.49240 | 11.14035 | 1676 ft | 141 kts | 283° |
| 2026-04-20 20:01 | 49.49394 | 11.12564 | 1494 ft | 140 kts | 282° |
| 2026-04-20 20:01 | 49.49537 | 11.11083 | 1294 ft | 140 kts | 282° |
| 2026-04-20 20:02 | 49.49695 | 11.09592 | 1086 ft | 141 kts | 281° |
| 2026-04-20 20:02 | 49.49830 | 11.08219 | 1050 ft | 107 kts | 279° |
| 2026-04-20 20:02 | 49.49912 | 11.07394 | 1050 ft | 60 kts | 278° |
| 2026-04-20 20:02 | 49.49933 | 11.07061 | 1050 ft | 11 kts | 255° |
| 2026-04-20 20:03 | 49.49878 | 11.07014 | 1050 ft | 10 kts | 166° |
| 2026-04-20 20:03 | 49.49826 | 11.07045 | 1049 ft | 4 kts | 158° |
| 2026-04-20 20:03 | 49.49821 | 11.07048 | 1049 ft | 0 kts | 158° |
| 2026-04-20 20:03 | 49.49814 | 11.07052 | 1050 ft | 1 kts | 158° |
| 2026-04-20 20:04 | 49.49802 | 11.07060 | 1050 ft | 2 kts | 158° |
| 2026-04-20 20:04 | 49.49768 | 11.07081 | 1050 ft | 7 kts | 157° |
| 2026-04-20 20:04 | 49.49741 | 11.07148 | 1050 ft | 8 kts | 101° |
| 2026-04-20 20:04 | 49.49721 | 11.07225 | 1050 ft | 7 kts | 153° |
| 2026-04-20 20:05 | 49.49664 | 11.07226 | 1050 ft | 8 kts | 185° |
| 2026-04-20 20:05 | 49.49633 | 11.07290 | 1050 ft | 8 kts | 97° |
| 2026-04-20 20:05 | 49.49625 | 11.07382 | 1050 ft | 8 kts | 98° |
| 2026-04-20 20:05 | 49.49623 | 11.07399 | 1050 ft | 0 kts | 98° |
| 2026-04-20 20:06 | 49.49622 | 11.07410 | 1050 ft | 3 kts | 98° |
| 2026-04-20 20:06 | 49.49609 | 11.07456 | 1050 ft | 5 kts | 146° |
| 2026-04-20 20:06 | 49.49573 | 11.07459 | 1050 ft | 5 kts | 183° |
| 2026-04-20 20:06 | 49.49559 | 11.07457 | 1050 ft | 0 kts | 187° |